Time;durP1;ratioP1;P1;durP2;ratioP2;P2;SDS_P1;SDS_P2;PMS_P1;PMS_P2;Temp;Humidity;BMP_temperature;BMP_pressure;BME280_temperature;BME280_humidity;BME280_pressure;Samples;Min_cycle;Max_cycle;Signal;HPM_P1;HPM_P2
2023/01/22 00:01:14;;;;;;;15.00;7.20;;;-1.40;99.90;;;;;;6224485;22;20024;-81
2023/01/22 00:03:42;;;;;;;12.90;6.37;;;-1.40;99.90;;;;;;6224398;22;20030;-81
2023/01/22 00:06:13;;;;;;;13.03;6.33;;;-1.40;99.90;;;;;;6219807;23;20028;-81
2023/01/22 00:08:41;;;;;;;17.43;8.50;;;-1.40;99.90;;;;;;6244008;23;20397;-82
2023/01/22 00:11:09;;;;;;;17.37;8.30;;;-1.50;99.90;;;;;;6219058;23;20022;-81
2023/01/22 00:13:36;;;;;;;14.97;8.17;;;-1.50;99.90;;;;;;6244246;23;20023;-81
2023/01/22 00:16:03;;;;;;;12.50;6.27;;;-1.50;99.90;;;;;;6244627;23;20020;-81
2023/01/22 00:18:30;;;;;;;15.63;7.83;;;-1.50;99.90;;;;;;6219494;23;20044;-81
2023/01/22 00:20:57;;;;;;;15.60;6.90;;;-1.50;99.90;;;;;;6218841;23;20020;-81
2023/01/22 00:23:24;;;;;;;16.20;7.50;;;-1.50;99.90;;;;;;6218670;23;20078;-81
2023/01/22 00:26:12;;;;;;;15.37;7.30;;;-1.40;99.90;;;;;;6193951;23;20020;-81
2023/01/22 00:28:41;;;;;;;17.97;8.13;;;-1.40;99.90;;;;;;6219100;23;20027;-81
2023/01/22 00:31:09;;;;;;;15.87;7.17;;;-1.40;99.90;;;;;;6245636;23;20074;-81
2023/01/22 00:33:37;;;;;;;16.67;8.20;;;-1.40;99.90;;;;;;6243997;23;20016;-80
2023/01/22 00:36:19;;;;;;;14.07;6.60;;;-1.40;99.90;;;;;;6194402;23;20026;-80
2023/01/22 00:38:48;;;;;;;12.60;6.10;;;-1.40;99.90;;;;;;6219002;23;20345;-81
2023/01/22 00:41:17;;;;;;;12.73;6.57;;;-1.40;99.90;;;;;;6219128;23;20020;-80
2023/01/22 00:43:44;;;;;;;14.57;6.50;;;-1.40;99.90;;;;;;6219156;23;20020;-81
2023/01/22 00:46:13;;;;;;;11.80;5.40;;;-1.40;99.90;;;;;;6194219;23;20446;-80
2023/01/22 00:48:41;;;;;;;11.83;5.00;;;-1.30;99.90;;;;;;6218991;23;20024;-81
2023/01/22 00:51:14;;;;;;;11.27;5.20;;;-1.40;99.90;;;;;;6219227;23;20352;-80
2023/01/22 00:53:42;;;;;;;11.97;5.00;;;-1.30;99.90;;;;;;6244237;22;20512;-81
2023/01/22 00:56:11;;;;;;;10.07;4.87;;;-1.30;99.90;;;;;;6170187;23;20103;-81
2023/01/22 00:58:38;;;;;;;8.87;4.63;;;-1.30;99.90;;;;;;6219157;23;20066;-81
2023/01/22 01:01:06;;;;;;;8.23;3.97;;;-1.30;99.90;;;;;;6194278;23;20020;-81
2023/01/22 01:03:36;;;;;;;8.73;4.43;;;-1.20;99.90;;;;;;6194382;23;20019;-81
2023/01/22 01:06:15;;;;;;;8.47;4.03;;;-1.20;99.90;;;;;;6194412;23;20028;-80
2023/01/22 01:08:45;;;;;;;8.13;3.53;;;-1.10;99.90;;;;;;6219176;23;20472;-81
2023/01/22 01:11:20;;;;;;;8.37;3.57;;;-1.20;99.90;;;;;;6194650;23;20020;-80
2023/01/22 01:13:48;;;;;;;10.33;5.37;;;-1.20;99.90;;;;;;6219080;23;20099;-80
2023/01/22 01:16:22;;;;;;;9.80;4.50;;;-1.20;99.90;;;;;;6219051;23;20016;-80
2023/01/22 01:18:49;;;;;;;9.50;3.87;;;-1.10;99.90;;;;;;6218993;23;20016;-80
2023/01/22 01:21:18;;;;;;;7.60;3.50;;;-1.00;99.90;;;;;;6218703;23;20024;-80
2023/01/22 01:23:45;;;;;;;9.07;3.50;;;-1.00;99.90;;;;;;6194363;23;20047;-79
2023/01/22 01:26:14;;;;;;;6.20;3.17;;;-0.90;99.90;;;;;;6169971;23;20354;-81
2023/01/22 01:28:42;;;;;;;9.30;4.87;;;-0.90;99.90;;;;;;6193981;23;20026;-80
2023/01/22 01:31:12;;;;;;;8.87;3.97;;;-0.80;99.90;;;;;;6218994;23;20027;-80
2023/01/22 01:33:41;;;;;;;11.67;5.00;;;-0.80;99.90;;;;;;6218563;23;20023;-80
2023/01/22 01:36:13;;;;;;;9.70;4.77;;;-0.70;99.90;;;;;;6218567;23;20480;-80
2023/01/22 01:38:41;;;;;;;11.07;6.17;;;-0.60;99.90;;;;;;6243802;23;20012;-81
2023/01/22 01:41:12;;;;;;;12.70;6.23;;;-0.60;99.90;;;;;;6218899;23;20023;-80
2023/01/22 01:43:39;;;;;;;12.10;5.77;;;-0.50;99.90;;;;;;6244074;23;20074;-81
2023/01/22 01:46:23;;;;;;;9.53;4.83;;;-0.50;99.90;;;;;;6193760;23;20103;-81
2023/01/22 01:48:53;;;;;;;11.17;4.73;;;-0.40;99.90;;;;;;6243580;23;20024;-80
2023/01/22 01:51:33;;;;;;;8.97;4.80;;;-0.40;99.90;;;;;;6243627;23;20028;-80
2023/01/22 01:54:03;;;;;;;10.47;5.77;;;-0.30;99.90;;;;;;6243532;22;20020;-81
2023/01/22 01:56:39;;;;;;;13.00;5.37;;;-0.30;99.90;;;;;;6243809;23;20027;-81
2023/01/22 01:59:11;;;;;;;10.97;5.23;;;-0.20;99.90;;;;;;6218697;23;20476;-80
2023/01/22 02:01:39;;;;;;;13.33;5.50;;;-0.20;99.90;;;;;;6243704;23;20017;-80
2023/01/22 02:04:06;;;;;;;14.13;7.10;;;-0.20;99.90;;;;;;6194153;23;20089;-80
2023/01/22 02:06:33;;;;;;;12.37;6.33;;;-0.20;99.90;;;;;;6169291;23;20078;-81
2023/01/22 02:09:01;;;;;;;11.63;6.63;;;-0.10;99.90;;;;;;6193827;23;20103;-80
2023/01/22 02:11:29;;;;;;;9.80;5.07;;;-0.20;99.90;;;;;;6218862;23;20024;-80
2023/01/22 02:14:01;;;;;;;11.33;5.40;;;-0.20;99.90;;;;;;6193830;23;20028;-81
2023/01/22 02:16:28;;;;;;;12.27;5.38;;;-0.20;99.90;;;;;;6243557;23;20036;-80
2023/01/22 02:18:55;;;;;;;11.43;5.07;;;-0.20;99.90;;;;;;6218348;23;20390;-80
2023/01/22 02:21:34;;;;;;;10.73;5.20;;;-0.20;99.90;;;;;;6169351;23;20023;-81
2023/01/22 02:24:03;;;;;;;11.07;5.53;;;-0.20;99.90;;;;;;6220226;23;20024;-80
2023/01/22 02:26:32;;;;;;;11.10;5.67;;;-0.20;99.90;;;;;;6220404;23;20103;-80
2023/01/22 02:28:59;;;;;;;13.73;6.53;;;-0.20;99.90;;;;;;6220343;23;20024;-80
2023/01/22 02:31:29;;;;;;;12.83;5.70;;;-0.10;99.90;;;;;;6172109;23;20158;-80
2023/01/22 02:33:57;;;;;;;11.40;6.23;;;-0.10;99.90;;;;;;6196024;23;20382;-80
2023/01/22 02:36:28;;;;;;;11.10;6.43;;;-0.10;99.90;;;;;;6245382;23;20046;-81
2023/01/22 02:38:55;;;;;;;12.77;6.57;;;-0.10;99.90;;;;;;6220470;23;20015;-81
2023/01/22 02:41:26;;;;;;;12.07;7.03;;;-0.20;99.90;;;;;;6195445;23;20074;-80
2023/01/22 02:43:54;;;;;;;10.25;4.93;;;-0.20;99.90;;;;;;6220506;23;20106;-80
2023/01/22 02:46:24;;;;;;;13.13;6.73;;;-0.20;99.90;;;;;;6196574;23;20068;-80
2023/01/22 02:48:55;;;;;;;14.17;7.23;;;-0.20;99.90;;;;;;6171582;23;20024;-81
2023/01/22 02:51:22;;;;;;;14.07;6.60;;;-0.30;99.90;;;;;;6245371;23;20024;-81
2023/01/22 02:53:49;;;;;;;15.40;7.47;;;-0.30;99.90;;;;;;6195413;23;20363;-80
2023/01/22 02:56:17;;;;;;;14.27;7.20;;;-0.30;99.90;;;;;;6195720;23;20016;-81
2023/01/22 02:58:44;;;;;;;13.20;6.57;;;-0.30;99.90;;;;;;6220144;23;20039;-80
2023/01/22 03:01:23;;;;;;;14.30;8.10;;;-0.30;99.90;;;;;;6195352;23;20020;-80
2023/01/22 03:04:11;;;;;;;15.23;7.73;;;-0.30;99.90;;;;;;6220816;23;20077;-81
2023/01/22 03:06:42;;;;;;;14.63;7.50;;;-0.40;99.90;;;;;;6250694;22;20019;-81
2023/01/22 03:09:11;;;;;;;13.80;7.30;;;-0.40;99.90;;;;;;6224838;22;20077;-80
2023/01/22 03:11:41;;;;;;;13.70;6.90;;;-0.40;99.90;;;;;;6225212;22;20102;-81
2023/01/22 03:22:30;;;;;;;13.77;7.13;;;-0.40;99.90;;;;;;6229255;22;20019;-82
2023/01/22 03:24:59;;;;;;;12.07;6.20;;;-0.40;99.90;;;;;;6175651;22;20453;-81
2023/01/22 03:27:28;;;;;;;15.13;8.03;;;-0.40;99.90;;;;;;6225732;22;20066;-81
2023/01/22 03:29:57;;;;;;;15.87;7.77;;;-0.40;99.90;;;;;;6225340;22;20020;-80
2023/01/22 03:32:25;;;;;;;15.77;6.80;;;-0.30;99.90;;;;;;6199855;22;20027;-80
2023/01/22 03:34:52;;;;;;;19.97;9.47;;;-0.30;99.90;;;;;;6175623;22;20065;-81
2023/01/22 03:37:21;;;;;;;19.07;9.30;;;-0.20;99.90;;;;;;6201097;22;20026;-81
2023/01/22 03:39:51;;;;;;;16.40;7.93;;;-0.20;99.90;;;;;;6201242;22;20019;-81
2023/01/22 03:42:30;;;;;;;18.03;9.00;;;-0.20;99.90;;;;;;6183686;22;20046;-81
2023/01/22 03:44:58;;;;;;;17.93;9.47;;;-0.10;99.90;;;;;;6200612;22;20514;-81
2023/01/22 03:47:25;;;;;;;17.67;8.40;;;-0.10;99.90;;;;;;6175712;22;20043;-81
2023/01/22 03:49:56;;;;;;;16.63;7.73;;;-0.10;99.90;;;;;;6199972;22;20038;-81
2023/01/22 03:52:23;;;;;;;16.43;7.80;;;-0.10;99.90;;;;;;6175933;22;20027;-81
2023/01/22 03:54:50;;;;;;;16.33;8.43;;;0.00;99.90;;;;;;6200373;22;20015;-82
2023/01/22 03:57:17;;;;;;;18.50;9.57;;;0.00;99.90;;;;;;6199917;22;20043;-82
2023/01/22 03:59:44;;;;;;;13.20;7.47;;;0.00;99.90;;;;;;6175357;22;20444;-81
2023/01/22 04:02:11;;;;;;;15.37;8.40;;;0.10;99.90;;;;;;6224505;22;20020;-81
2023/01/22 04:04:51;;;;;;;14.77;8.33;;;0.10;99.90;;;;;;6227211;22;20024;-81
2023/01/22 04:07:18;;;;;;;16.63;8.47;;;0.10;99.90;;;;;;6199371;22;20023;-82
2023/01/22 04:09:47;;;;;;;15.33;7.43;;;0.20;99.90;;;;;;6249387;22;20035;-81
2023/01/22 04:12:14;;;;;;;16.23;8.20;;;0.20;99.90;;;;;;6174834;22;20020;-81
2023/01/22 04:14:42;;;;;;;17.40;8.37;;;0.20;99.90;;;;;;6224682;22;20099;-81
2023/01/22 04:17:09;;;;;;;14.73;7.37;;;0.20;99.90;;;;;;6199751;22;20391;-81
2023/01/22 04:19:48;;;;;;;13.90;7.00;;;0.20;99.90;;;;;;6204301;22;20066;-81
2023/01/22 04:22:34;;;;;;;13.23;6.97;;;0.20;99.90;;;;;;6232869;22;20043;-81
2023/01/22 04:25:02;;;;;;;14.87;6.40;;;0.20;99.90;;;;;;6200179;22;20069;-81
2023/01/22 04:27:30;;;;;;;13.87;6.47;;;0.20;99.90;;;;;;6200266;22;20102;-81
2023/01/22 04:29:57;;;;;;;13.27;6.77;;;0.20;99.90;;;;;;6175290;22;20019;-81
2023/01/22 04:32:24;;;;;;;13.77;6.83;;;0.20;99.90;;;;;;6224363;22;20023;-81
2023/01/22 04:35:04;;;;;;;16.07;7.67;;;0.20;99.90;;;;;;6227019;22;20020;-81
2023/01/22 04:37:36;;;;;;;15.82;7.60;;;0.20;99.90;;;;;;6177561;22;20030;-81
2023/01/22 04:40:04;;;;;;;14.33;7.60;;;0.20;99.90;;;;;;6174816;22;20019;-81
2023/01/22 04:42:36;;;;;;;13.70;7.33;;;0.20;99.90;;;;;;6225298;22;20020;-80
2023/01/22 04:45:04;;;;;;;14.37;7.20;;;0.20;99.90;;;;;;6199590;22;20024;-80
2023/01/22 04:47:31;;;;;;;11.73;5.43;;;0.20;99.90;;;;;;6224112;22;20082;-80
2023/01/22 04:49:58;;;;;;;13.37;7.57;;;0.30;99.90;;;;;;6249679;22;20073;-80
2023/01/22 04:52:26;;;;;;;13.97;6.33;;;0.20;99.90;;;;;;6199332;22;20024;-81
2023/01/22 04:54:53;;;;;;;12.83;6.53;;;0.30;99.90;;;;;;6175078;22;20020;-81
2023/01/22 04:57:22;;;;;;;12.37;6.43;;;0.30;99.90;;;;;;6224581;22;20020;-80
2023/01/22 04:59:50;;;;;;;14.07;6.50;;;0.30;99.90;;;;;;6223969;22;20028;-80
2023/01/22 05:02:17;;;;;;;13.77;6.50;;;0.30;99.90;;;;;;6223950;22;20085;-81
2023/01/22 05:04:44;;;;;;;12.57;6.60;;;0.30;99.90;;;;;;6223832;22;20050;-80
2023/01/22 05:07:12;;;;;;;16.13;8.70;;;0.30;99.90;;;;;;6199785;22;20028;-80
2023/01/22 05:09:39;;;;;;;14.73;6.90;;;0.30;99.90;;;;;;6224206;22;20023;-81
2023/01/22 05:12:06;;;;;;;13.87;7.93;;;0.30;99.90;;;;;;6224011;22;20016;-81
2023/01/22 05:14:39;;;;;;;13.97;6.77;;;0.30;99.80;;;;;;6225153;22;20031;-80
2023/01/22 05:17:06;;;;;;;12.30;6.50;;;0.40;99.90;;;;;;6249263;22;20066;-80
2023/01/22 05:19:34;;;;;;;12.83;6.93;;;0.40;99.80;;;;;;6224311;22;20528;-81
2023/01/22 05:22:04;;;;;;;15.87;8.20;;;0.40;99.80;;;;;;6224520;22;20026;-81
2023/01/22 05:24:32;;;;;;;13.73;7.23;;;0.40;99.90;;;;;;6224123;22;20048;-80
2023/01/22 05:26:59;;;;;;;15.10;7.43;;;0.40;99.80;;;;;;6223903;22;20030;-81
2023/01/22 05:29:33;;;;;;;15.23;7.97;;;0.30;99.80;;;;;;6201534;22;20441;-81
2023/01/22 05:32:23;;;;;;;15.50;7.93;;;0.30;99.90;;;;;;6222965;22;20024;-82
2023/01/22 05:34:53;;;;;;;15.17;7.67;;;0.40;99.80;;;;;;6176529;22;20404;-81
2023/01/22 05:37:21;;;;;;;13.60;6.70;;;0.40;99.80;;;;;;6224163;22;20020;-81
2023/01/22 05:39:50;;;;;;;12.73;5.70;;;0.30;99.80;;;;;;6224326;22;20015;-81
2023/01/22 05:42:17;;;;;;;14.63;7.13;;;0.40;99.80;;;;;;6199306;22;20086;-80
2023/01/22 05:44:47;;;;;;;11.73;6.03;;;0.40;99.70;;;;;;6176244;22;20465;-81
2023/01/22 05:47:16;;;;;;;12.10;6.63;;;0.40;99.70;;;;;;6224300;22;20030;-81
2023/01/22 05:50:01;;;;;;;14.40;7.80;;;0.40;99.70;;;;;;6228034;22;20437;-81
2023/01/22 05:52:28;;;;;;;14.93;7.10;;;0.40;99.70;;;;;;6198459;22;20388;-81
2023/01/22 05:54:55;;;;;;;13.60;6.93;;;0.40;99.70;;;;;;6198891;22;20012;-81
2023/01/22 05:57:26;;;;;;;12.13;6.30;;;0.40;99.70;;;;;;6201349;22;20073;-81
2023/01/22 05:59:53;;;;;;;12.57;6.47;;;0.40;99.70;;;;;;6177181;22;20049;-81
2023/01/22 06:02:20;;;;;;;16.20;7.57;;;0.40;99.70;;;;;;6200457;22;20042;-80
2023/01/22 06:04:51;;;;;;;15.00;7.03;;;0.40;99.70;;;;;;6177742;22;20472;-81
2023/01/22 06:07:24;;;;;;;14.50;8.40;;;0.40;99.70;;;;;;6179638;22;20069;-80
2023/01/22 06:09:51;;;;;;;16.90;8.47;;;0.40;99.70;;;;;;6200665;22;20047;-81
2023/01/22 06:12:18;;;;;;;15.33;6.87;;;0.40;99.70;;;;;;6225973;22;20392;-81
2023/01/22 06:14:46;;;;;;;13.13;7.07;;;0.30;99.70;;;;;;6176668;22;20331;-81
2023/01/22 06:17:13;;;;;;;19.73;8.20;;;0.40;99.70;;;;;;6200849;22;20073;-80
2023/01/22 06:19:46;;;;;;;11.97;6.50;;;0.40;99.70;;;;;;6203462;22;20023;-80
2023/01/22 06:22:18;;;;;;;12.43;6.40;;;0.40;99.70;;;;;;6226411;22;20353;-81
2023/01/22 06:24:56;;;;;;;10.33;5.67;;;0.40;99.70;;;;;;6205965;22;20023;-82
2023/01/22 06:27:30;;;;;;;11.97;6.13;;;0.40;99.70;;;;;;6203593;22;20043;-81
2023/01/22 06:29:59;;;;;;;12.17;6.20;;;0.30;99.70;;;;;;6225823;22;20019;-81
2023/01/22 06:32:26;;;;;;;11.67;6.77;;;0.30;99.70;;;;;;6200720;22;20028;-81
2023/01/22 06:34:53;;;;;;;13.57;6.67;;;0.30;99.70;;;;;;6225374;22;20066;-81
2023/01/22 06:37:21;;;;;;;10.63;5.97;;;0.20;99.60;;;;;;6201004;22;20024;-80
2023/01/22 06:39:50;;;;;;;11.37;6.10;;;0.20;99.70;;;;;;6225952;22;20026;-81
2023/01/22 06:42:40;;;;;;;10.00;5.10;;;0.20;99.70;;;;;;6215121;22;20015;-80
2023/01/22 06:45:07;;;;;;;9.90;5.03;;;0.10;99.70;;;;;;6225343;22;20515;-80
2023/01/22 06:47:36;;;;;;;8.87;4.60;;;0.10;99.80;;;;;;6225613;22;20335;-80
2023/01/22 06:50:04;;;;;;;9.60;5.03;;;0.10;99.90;;;;;;6225215;22;20023;-80
2023/01/22 06:52:31;;;;;;;8.33;4.27;;;0.10;99.90;;;;;;6200716;22;20405;-80
2023/01/22 06:54:58;;;;;;;9.63;5.20;;;0.10;99.90;;;;;;6175913;22;20046;-80
2023/01/22 06:57:25;;;;;;;11.73;6.10;;;0.10;99.90;;;;;;6225510;22;20047;-80
2023/01/22 06:59:56;;;;;;;9.77;5.83;;;0.20;99.90;;;;;;6178222;22;20023;-79
2023/01/22 07:02:23;;;;;;;9.23;4.73;;;0.20;99.80;;;;;;6224977;22;20381;-79
2023/01/22 07:04:50;;;;;;;11.03;5.03;;;0.20;99.80;;;;;;6225564;22;20050;-80
2023/01/22 07:07:17;;;;;;;8.10;4.47;;;0.20;99.80;;;;;;6224972;22;20019;-81
2023/01/22 07:09:44;;;;;;;8.60;4.63;;;0.30;99.80;;;;;;6225180;22;20019;-81
2023/01/22 07:12:11;;;;;;;9.43;4.83;;;0.20;99.70;;;;;;6200441;22;20057;-80
2023/01/22 07:14:38;;;;;;;7.50;4.13;;;0.30;99.70;;;;;;6200329;22;20043;-81
2023/01/22 07:17:05;;;;;;;7.37;3.87;;;0.30;99.70;;;;;;6200631;22;20016;-81
2023/01/22 07:19:32;;;;;;;8.40;3.90;;;0.20;99.70;;;;;;6175382;22;20016;-81
2023/01/22 07:21:59;;;;;;;8.30;3.87;;;0.20;99.70;;;;;;6225221;22;20019;-81
2023/01/22 07:24:26;;;;;;;6.37;2.90;;;0.10;99.70;;;;;;6225509;22;20090;-81
2023/01/22 07:26:54;;;;;;;7.53;3.23;;;0.10;99.70;;;;;;6175510;22;20028;-81
2023/01/22 07:29:21;;;;;;;7.33;3.57;;;0.10;99.80;;;;;;6225253;22;20393;-81
2023/01/22 07:31:50;;;;;;;6.43;3.37;;;0.10;99.90;;;;;;6201168;22;20023;-81
2023/01/22 07:34:17;;;;;;;7.97;4.07;;;0.00;99.80;;;;;;6199735;22;20465;-80
2023/01/22 07:36:47;;;;;;;7.37;3.90;;;0.00;99.80;;;;;;6200249;22;20023;-81
2023/01/22 07:39:14;;;;;;;7.57;3.70;;;0.00;99.80;;;;;;6200005;22;20020;-80
2023/01/22 07:41:41;;;;;;;10.67;5.10;;;0.00;99.80;;;;;;6175287;22;20052;-80
2023/01/22 07:44:12;;;;;;;8.77;4.60;;;0.00;99.90;;;;;;6200736;22;20020;-81
2023/01/22 07:46:39;;;;;;;8.80;4.53;;;0.00;99.90;;;;;;6224169;22;20030;-81
2023/01/22 07:49:06;;;;;;;8.63;4.30;;;0.00;99.90;;;;;;6199619;22;20031;-81
2023/01/22 07:51:33;;;;;;;8.00;4.30;;;0.00;99.80;;;;;;6223424;22;20043;-81
2023/01/22 07:54:00;;;;;;;7.40;3.87;;;0.00;99.80;;;;;;6174613;22;20357;-81
2023/01/22 07:56:27;;;;;;;7.23;4.03;;;0.00;99.90;;;;;;6223911;22;20106;-80
2023/01/22 07:58:54;;;;;;;6.47;3.77;;;0.00;99.90;;;;;;6224444;22;20545;-81
2023/01/22 08:01:21;;;;;;;8.97;4.47;;;0.10;99.90;;;;;;6198844;22;20472;-81
2023/01/22 08:03:48;;;;;;;8.97;4.47;;;0.10;99.90;;;;;;6199444;22;20043;-82
2023/01/22 08:06:19;;;;;;;10.47;5.37;;;0.20;99.90;;;;;;6219451;23;20070;-81
2023/01/22 08:08:46;;;;;;;13.27;6.00;;;0.30;99.80;;;;;;6244346;23;20050;-81
2023/01/22 08:11:14;;;;;;;9.07;5.17;;;0.30;99.70;;;;;;6219215;23;20016;-81
2023/01/22 08:13:41;;;;;;;10.87;5.17;;;0.30;99.70;;;;;;6244463;23;20168;-81
2023/01/22 08:16:08;;;;;;;7.80;4.93;;;0.30;99.60;;;;;;6194379;23;20483;-81
2023/01/22 08:18:36;;;;;;;9.10;5.20;;;0.40;99.60;;;;;;6218926;23;20068;-81
2023/01/22 08:21:03;;;;;;;11.00;6.03;;;0.40;99.60;;;;;;6219335;23;20048;-82
2023/01/22 08:23:30;;;;;;;11.37;6.20;;;0.40;99.60;;;;;;6195029;23;20043;-82
2023/01/22 08:26:02;;;;;;;9.23;5.37;;;0.50;99.60;;;;;;6194932;23;20070;-80
2023/01/22 08:28:30;;;;;;;8.35;5.43;;;0.60;99.50;;;;;;6195491;23;20058;-81
2023/01/22 08:31:02;;;;;;;9.90;5.33;;;0.60;99.50;;;;;;6219464;23;20078;-80
2023/01/22 08:33:32;;;;;;;11.45;6.43;;;0.70;99.50;;;;;;6194498;23;20346;-80
2023/01/22 08:35:59;;;;;;;11.13;5.40;;;0.70;99.40;;;;;;6219118;23;20065;-80
2023/01/22 08:38:26;;;;;;;10.70;6.10;;;0.70;99.40;;;;;;6169377;23;20020;-82
2023/01/22 08:40:53;;;;;;;9.53;5.73;;;0.70;99.30;;;;;;6219019;23;20016;-83
2023/01/22 08:43:20;;;;;;;9.53;5.33;;;0.80;99.30;;;;;;6194292;23;20020;-81
2023/01/22 08:45:48;;;;;;;8.40;4.97;;;0.80;99.30;;;;;;6194677;23;20074;-81
2023/01/22 08:48:16;;;;;;;9.07;5.13;;;0.80;99.30;;;;;;6219182;23;20028;-83
2023/01/22 08:50:43;;;;;;;10.63;5.43;;;0.80;99.30;;;;;;6193691;23;20023;-83
2023/01/22 08:53:10;;;;;;;9.13;5.43;;;0.80;99.30;;;;;;6193984;23;20024;-83
2023/01/22 08:55:37;;;;;;;8.30;4.87;;;0.80;99.30;;;;;;6169239;23;20016;-82
2023/01/22 08:58:05;;;;;;;8.60;4.70;;;0.90;99.30;;;;;;6243971;23;20027;-84
2023/01/22 09:00:32;;;;;;;8.90;4.27;;;0.90;99.20;;;;;;6219731;23;20024;-89
2023/01/22 09:02:59;;;;;;;8.23;4.63;;;0.90;99.20;;;;;;6244674;23;20016;-89
2023/01/22 09:05:27;;;;;;;9.17;5.13;;;1.00;99.20;;;;;;6243990;23;20035;-84
2023/01/22 09:07:54;;;;;;;7.50;4.30;;;1.00;99.10;;;;;;6244485;23;20069;-84
2023/01/22 09:10:21;;;;;;;9.83;5.80;;;1.00;99.10;;;;;;6219069;23;20024;-88
2023/01/22 09:12:51;;;;;;;7.30;4.47;;;1.00;99.10;;;;;;6171739;23;20016;-85
2023/01/22 09:15:21;;;;;;;8.60;4.63;;;1.00;99.10;;;;;;6196136;23;20012;-88
2023/01/22 09:17:49;;;;;;;7.33;4.20;;;1.00;99.10;;;;;;6220220;23;20020;-88
2023/01/22 09:20:16;;;;;;;7.23;4.90;;;1.10;99.10;;;;;;6195674;23;20110;-87
2023/01/22 09:22:44;;;;;;;6.97;4.70;;;1.10;99.10;;;;;;6220410;23;20024;-84
2023/01/22 09:25:12;;;;;;;8.07;4.57;;;1.10;99.00;;;;;;6170183;23;20020;-85
2023/01/22 09:27:39;;;;;;;6.57;3.53;;;1.10;99.00;;;;;;6218532;23;20357;-80
2023/01/22 09:30:08;;;;;;;8.07;4.03;;;1.20;99.00;;;;;;6243740;23;20498;-78
2023/01/22 09:32:37;;;;;;;7.78;4.45;;;1.30;99.00;;;;;;6218791;23;20331;-81
2023/01/22 09:35:05;;;;;;;11.43;6.20;;;1.30;98.90;;;;;;6218396;23;20016;-81
2023/01/22 09:37:32;;;;;;;8.47;4.90;;;1.30;98.90;;;;;;6218813;23;20017;-84
2023/01/22 09:39:59;;;;;;;6.97;4.20;;;1.30;98.80;;;;;;6193839;23;20020;-80
2023/01/22 09:42:33;;;;;;;7.53;4.77;;;1.30;98.80;;;;;;6218734;23;20020;-79
2023/01/22 09:45:06;;;;;;;7.27;4.47;;;1.30;98.80;;;;;;6243795;23;20030;-78
2023/01/22 09:47:41;;;;;;;7.70;4.57;;;1.30;98.80;;;;;;6243225;23;20078;-80
2023/01/22 09:50:14;;;;;;;7.70;4.80;;;1.30;98.80;;;;;;6218450;23;20016;-80
2023/01/22 09:52:41;;;;;;;7.23;4.33;;;1.30;98.80;;;;;;6218447;23;20028;-80
2023/01/22 09:55:17;;;;;;;8.70;3.87;;;1.30;98.80;;;;;;6169795;23;20016;-79
2023/01/22 09:57:46;;;;;;;8.80;5.20;;;1.40;98.70;;;;;;6243898;23;20013;-79
2023/01/22 10:00:17;;;;;;;8.35;5.07;;;1.40;98.70;;;;;;6243655;23;20091;-84
2023/01/22 10:03:05;;;;;;;8.40;4.90;;;1.40;98.70;;;;;;6243570;23;20013;-81
2023/01/22 10:05:47;;;;;;;6.67;3.87;;;1.50;98.70;;;;;;6218240;23;20028;-79
2023/01/22 10:08:21;;;;;;;7.55;4.40;;;1.50;98.70;;;;;;6243277;23;20024;-79
2023/01/22 10:10:53;;;;;;;6.60;3.87;;;1.50;98.70;;;;;;6243391;23;20107;-78
2023/01/22 10:13:23;;;;;;;6.15;3.88;;;1.60;98.60;;;;;;6243584;23;20020;-79
2023/01/22 10:15:55;;;;;;;7.60;4.50;;;1.60;98.60;;;;;;6243283;23;20026;-79
2023/01/22 10:18:47;;;;;;;9.13;4.93;;;1.60;98.60;;;;;;6243467;23;20099;-82
2023/01/22 10:21:54;;;;;;;7.28;4.32;;;1.60;98.50;;;;;;6218120;23;20020;-81
2023/01/22 10:24:21;;;;;;;10.27;5.73;;;1.60;98.50;;;;;;6198007;23;20054;-81
2023/01/22 10:26:53;;;;;;;8.75;5.13;;;1.60;98.50;;;;;;6245101;23;20020;-80
2023/01/22 10:29:20;;;;;;;9.13;5.22;;;1.50;98.40;;;;;;6243307;23;20059;-80
2023/01/22 10:31:52;;;;;;;7.33;4.13;;;1.50;98.40;;;;;;6218320;23;20095;-80
2023/01/22 10:34:33;;;;;;;;;;;1.60;98.50;;;;;;6244300;23;20357;-79
2023/01/22 10:37:15;;;;;;;8.40;4.73;;;1.60;98.50;;;;;;6243690;23;19915;-79
2023/01/22 10:39:44;;;;;;;8.27;4.78;;;1.60;98.40;;;;;;6218540;23;20159;-80
2023/01/22 10:42:23;;;;;;;8.77;5.17;;;1.60;98.40;;;;;;6218654;23;20028;-79
2023/01/22 10:45:08;;;;;;;6.67;3.97;;;1.60;98.40;;;;;;6245566;23;20066;-79
2023/01/22 10:47:35;;;;;;;7.30;4.40;;;1.60;98.40;;;;;;6245515;23;20099;-79
2023/01/22 10:50:06;;;;;;;7.37;4.67;;;1.70;98.40;;;;;;6195351;23;20111;-79
2023/01/22 10:52:38;;;;;;;9.33;4.23;;;1.70;98.30;;;;;;6245048;22;20020;-80
2023/01/22 10:55:06;;;;;;;;;;;1.70;98.40;;;;;;6246959;23;20020;-79
2023/01/22 10:57:36;;;;;;;8.47;4.90;;;1.70;98.40;;;;;;6220014;23;20356;-79
2023/01/22 11:00:12;;;;;;;10.57;5.07;;;1.70;98.30;;;;;;6170957;23;20041;-79
2023/01/22 11:02:45;;;;;;;9.90;4.87;;;1.80;98.30;;;;;;6245171;23;20521;-79
2023/01/22 11:05:46;;;;;;;8.07;5.17;;;1.80;98.20;;;;;;6250526;22;20019;-79
2023/01/22 11:08:17;;;;;;;7.47;4.20;;;1.80;98.20;;;;;;6194303;22;20020;-81
2023/01/22 11:10:47;;;;;;;8.13;4.83;;;1.80;98.30;;;;;;6224920;22;20023;-80
2023/01/22 11:13:35;;;;;;;8.48;5.30;;;1.80;98.30;;;;;;6277443;22;20457;-79
2023/01/22 11:16:12;;;;;;;9.10;4.60;;;1.80;98.30;;;;;;6224956;22;20020;-80
2023/01/22 11:18:48;;;;;;;8.53;4.80;;;1.80;98.20;;;;;;6249812;22;20012;-78
2023/01/22 11:21:22;;;;;;;8.13;4.80;;;1.90;98.20;;;;;;6224793;22;20020;-80
2023/01/22 11:24:02;;;;;;;9.23;4.97;;;1.80;98.20;;;;;;6249951;22;20093;-80
2023/01/22 11:26:37;;;;;;;9.15;4.88;;;1.80;98.20;;;;;;6224230;22;20032;-79
2023/01/22 11:29:29;;;;;;;8.98;4.47;;;1.80;98.20;;;;;;6224709;22;20023;-79
2023/01/22 11:32:21;;;;;;;10.23;4.82;;;1.80;98.20;;;;;;6224702;22;20028;-78
2023/01/22 11:35:21;;;;;;;8.77;5.13;;;1.80;98.20;;;;;;6225085;22;20047;-79
2023/01/22 11:38:03;;;;;;;8.03;4.30;;;1.80;98.20;;;;;;6224760;22;20081;-79
2023/01/22 11:40:38;;;;;;;8.85;4.93;;;1.80;98.10;;;;;;6276732;22;20042;-78
2023/01/22 11:43:24;;;;;;;7.30;4.53;;;1.80;98.10;;;;;;6224762;22;20024;-79
2023/01/22 11:46:15;;;;;;;9.37;5.43;;;1.80;98.20;;;;;;6224471;22;20016;-79
2023/01/22 11:49:04;;;;;;;9.80;5.00;;;1.70;98.20;;;;;;6249766;22;20046;-78
2023/01/22 11:51:39;;;;;;;8.03;4.93;;;1.80;98.20;;;;;;6224630;22;20020;-79
2023/01/22 11:54:21;;;;;;;10.65;5.93;;;1.80;98.20;;;;;;6249858;22;20042;-79
2023/01/22 11:56:54;;;;;;;9.30;5.28;;;1.80;98.10;;;;;;6250043;22;20015;-79
2023/01/22 11:59:26;;;;;;;8.90;5.43;;;1.80;98.20;;;;;;6224682;22;20019;-78
2023/01/22 12:02:35;;;;;;;12.17;6.53;;;1.80;98.20;;;;;;6225123;22;20015;-78
2023/01/22 12:05:35;;;;;;;10.33;5.70;;;1.90;98.10;;;;;;6242773;22;20026;-78
2023/01/22 12:08:47;;;;;;;9.47;5.57;;;2.00;98.10;;;;;;6223782;22;20022;-79
2023/01/22 12:11:34;;;;;;;9.53;5.93;;;2.00;98.10;;;;;;6075029;23;20018;-81
2023/01/22 12:14:09;;;;;;;9.27;5.07;;;2.00;98.00;;;;;;6217415;22;20019;-83
2023/01/22 12:17:00;;;;;;;10.37;5.83;;;2.00;98.00;;;;;;6249875;22;20008;-81
2023/01/22 12:19:50;;;;;;;8.33;5.10;;;2.00;98.00;;;;;;6224286;22;20016;-80
2023/01/22 12:23:03;;;;;;;8.27;4.37;;;2.10;98.00;;;;;;6224039;22;20442;-80
2023/01/22 12:25:40;;;;;;;10.38;5.50;;;2.20;97.90;;;;;;6074825;23;20021;-79
2023/01/22 12:28:13;;;;;;;7.97;5.07;;;2.20;97.80;;;;;;6123298;23;20495;-80
2023/01/22 12:30:52;;;;;;;8.70;4.97;;;2.20;97.90;;;;;;6181710;22;20107;-80
2023/01/22 12:33:25;;;;;;;9.40;5.67;;;2.20;97.90;;;;;;6224293;22;20024;-82
2023/01/22 12:35:56;;;;;;;9.00;4.88;;;2.20;97.90;;;;;;6249150;22;20464;-79
2023/01/22 12:38:26;;;;;;;9.97;5.30;;;2.30;97.90;;;;;;6223720;22;20042;-81
2023/01/22 12:41:32;;;;;;;11.60;6.70;;;2.30;97.80;;;;;;6224436;22;20349;-81
2023/01/22 12:44:23;;;;;;;9.60;6.30;;;2.20;97.70;;;;;;6223858;22;20400;-80
2023/01/22 12:47:16;;;;;;;9.27;5.03;;;2.20;97.80;;;;;;6181117;22;20107;-79
2023/01/22 12:49:46;;;;;;;10.43;5.03;;;2.20;97.90;;;;;;6223793;22;20065;-80
2023/01/22 12:52:30;;;;;;;11.15;6.07;;;2.20;97.90;;;;;;6249201;22;20023;-79
2023/01/22 12:54:58;;;;;;;8.68;5.18;;;2.20;97.80;;;;;;6249210;22;20026;-81
2023/01/22 12:57:39;;;;;;;9.05;5.40;;;2.20;97.80;;;;;;6224603;22;20016;-81
2023/01/22 13:00:29;;;;;;;7.18;4.75;;;2.20;97.90;;;;;;6223822;22;20019;-80
2023/01/22 13:02:57;;;;;;;9.00;5.18;;;2.20;97.90;;;;;;6224047;22;20022;-79
2023/01/22 13:05:30;;;;;;;7.68;3.90;;;2.20;97.90;;;;;;6174235;22;20020;-81
2023/01/22 13:08:04;;;;;;;10.18;5.72;;;2.30;97.90;;;;;;6224704;22;20024;-79
2023/01/22 13:10:34;;;;;;;7.85;4.55;;;2.30;97.80;;;;;;6249478;22;20038;-80
2023/01/22 13:13:22;;;;;;;8.27;4.13;;;2.20;97.90;;;;;;6223868;22;20437;-81
2023/01/22 13:16:02;;;;;;;6.72;3.58;;;2.30;98.00;;;;;;6224185;22;20065;-79
2023/01/22 13:18:34;;;;;;;5.78;3.38;;;2.30;97.90;;;;;;6223699;22;20019;-81
2023/01/22 13:21:13;;;;;;;6.47;3.03;;;2.30;98.00;;;;;;6223908;22;20102;-80
2023/01/22 13:23:43;;;;;;;7.47;4.03;;;2.40;97.90;;;;;;6249562;22;20035;-80